createdAt,value
2023-03-18T00:02:17.972Z,5.25
2023-03-18T00:04:45.639Z,4.60
2023-03-18T00:07:12.302Z,5.18
2023-03-18T00:09:43.407Z,4.43
2023-03-18T00:12:10.838Z,4.28
2023-03-18T00:14:38.832Z,4.35
2023-03-18T00:17:06.279Z,4.30
2023-03-18T00:19:34.041Z,4.55
2023-03-18T00:22:00.956Z,3.95
2023-03-18T00:24:28.454Z,4.60
2023-03-18T00:26:56.318Z,4.88
2023-03-18T00:29:25.072Z,4.50
2023-03-18T00:31:52.394Z,4.88
2023-03-18T00:34:20.597Z,5.13
2023-03-18T00:36:51.136Z,4.47
2023-03-18T00:39:21.972Z,4.70
2023-03-18T00:41:48.722Z,4.85
2023-03-18T00:44:15.463Z,4.30
2023-03-18T00:46:44.706Z,4.50
2023-03-18T00:49:12.292Z,4.50
2023-03-18T00:51:39.681Z,4.38
2023-03-18T00:54:08.702Z,4.47
2023-03-18T00:56:37.827Z,4.65
2023-03-18T00:59:06.445Z,4.45
2023-03-18T01:01:33.566Z,4.22
2023-03-18T01:04:01.186Z,5.03
2023-03-18T01:06:29.331Z,4.22
2023-03-18T01:08:59.777Z,4.32
2023-03-18T01:11:27.942Z,4.10
2023-03-18T01:13:55.192Z,5.38
2023-03-18T01:16:23.076Z,4.32
2023-03-18T01:18:49.732Z,4.00
2023-03-18T01:21:17.365Z,4.25
2023-03-18T01:23:44.620Z,4.57
2023-03-18T01:26:11.371Z,3.58
2023-03-18T01:28:38.401Z,4.50
2023-03-18T01:31:08.876Z,4.40
2023-03-18T01:33:36.869Z,3.92
2023-03-18T01:36:04.127Z,4.32
2023-03-18T01:38:32.264Z,4.13
2023-03-18T01:41:00.476Z,4.55
2023-03-18T01:43:32.094Z,4.40
2023-03-18T01:46:01.457Z,4.20
2023-03-18T01:48:35.775Z,4.65
2023-03-18T01:51:10.196Z,4.05
2023-03-18T01:53:41.012Z,4.22
2023-03-18T01:56:07.977Z,4.43
2023-03-18T01:58:39.334Z,4.22
2023-03-18T02:01:14.466Z,4.30
2023-03-18T02:06:12.567Z,4.25
2023-03-18T02:08:40.449Z,4.30
2023-03-18T02:11:10.528Z,3.75
2023-03-18T02:13:45.001Z,3.63
2023-03-18T02:16:24.622Z,4.68
2023-03-18T02:18:56.860Z,4.65
2023-03-18T02:21:40.640Z,3.85
2023-03-18T02:24:37.416Z,3.65
2023-03-18T02:27:15.928Z,3.33
2023-03-18T02:29:45.058Z,4.05
2023-03-18T02:32:12.585Z,3.72
2023-03-18T02:34:41.123Z,3.90
2023-03-18T02:37:11.424Z,3.38
2023-03-18T02:39:45.558Z,3.83
2023-03-18T02:42:14.296Z,4.15
2023-03-18T02:44:45.482Z,4.28
2023-03-18T02:47:15.645Z,3.97
2023-03-18T02:49:43.059Z,3.80
2023-03-18T02:52:12.684Z,4.68
2023-03-18T02:54:39.365Z,5.50
2023-03-18T02:57:08.635Z,3.45
2023-03-18T02:59:43.990Z,3.67
2023-03-18T03:02:10.938Z,3.83
2023-03-18T03:04:38.469Z,4.03
2023-03-18T03:07:06.025Z,4.07
2023-03-18T03:09:35.726Z,3.30
2023-03-18T03:12:02.565Z,4.15
2023-03-18T03:14:29.402Z,3.67
2023-03-18T03:16:57.106Z,4.03
2023-03-18T03:19:24.144Z,3.80
2023-03-18T03:21:52.726Z,4.05
2023-03-18T03:24:19.563Z,4.28
2023-03-18T03:26:46.426Z,3.78
2023-03-18T03:29:15.460Z,3.53
2023-03-18T03:31:42.239Z,3.75
2023-03-18T03:34:09.203Z,3.72
2023-03-18T03:36:36.819Z,3.58
2023-03-18T03:39:04.341Z,4.03
2023-03-18T03:41:31.125Z,3.38
2023-03-18T03:44:00.224Z,3.75
2023-03-18T03:46:28.001Z,3.17
2023-03-18T03:48:55.250Z,4.10
2023-03-18T03:51:25.708Z,4.05
2023-03-18T03:53:52.936Z,3.53
2023-03-18T03:56:19.559Z,3.17
2023-03-18T03:58:47.109Z,3.80
2023-03-18T04:01:14.017Z,3.35
2023-03-18T04:03:40.630Z,3.45
2023-03-18T04:06:09.951Z,3.72
2023-03-18T04:08:37.004Z,3.47
2023-03-18T04:11:04.727Z,4.55
2023-03-18T04:13:32.369Z,3.85
2023-03-18T04:15:59.441Z,4.18
2023-03-18T04:18:26.341Z,3.95
2023-03-18T04:20:53.933Z,3.97
2023-03-18T04:23:23.793Z,3.42
2023-03-18T04:25:50.840Z,3.60
2023-03-18T04:28:19.429Z,3.60
2023-03-18T04:30:48.485Z,3.67
2023-03-18T04:33:15.062Z,3.72
2023-03-18T04:35:45.386Z,3.80
2023-03-18T04:38:14.435Z,3.70
2023-03-18T04:40:43.134Z,3.33
2023-03-18T04:43:10.250Z,3.92
2023-03-18T04:45:37.016Z,3.88
2023-03-18T04:48:04.495Z,3.95
2023-03-18T04:50:33.115Z,3.58
2023-03-18T04:53:00.406Z,4.13
2023-03-18T04:55:27.129Z,3.80
2023-03-18T04:57:54.952Z,4.30
2023-03-18T05:00:22.653Z,3.60
2023-03-18T05:02:49.874Z,3.88
2023-03-18T05:05:17.795Z,4.13
2023-03-18T05:07:47.221Z,3.85
2023-03-18T05:10:14.407Z,4.20
2023-03-18T05:12:45.346Z,3.10
2023-03-18T05:15:13.413Z,3.50
2023-03-18T05:17:43.769Z,3.60
2023-03-18T05:20:11.664Z,3.80
2023-03-18T05:22:40.069Z,4.53
2023-03-18T05:25:07.982Z,3.92
2023-03-18T05:27:36.266Z,4.00
2023-03-18T05:30:04.779Z,4.15
2023-03-18T05:32:32.429Z,3.80
2023-03-18T05:35:00.731Z,3.65
2023-03-18T05:37:27.547Z,3.88
2023-03-18T05:39:54.313Z,4.38
2023-03-18T05:42:21.165Z,3.90
2023-03-18T05:44:48.590Z,4.55
2023-03-18T05:47:15.631Z,4.10
2023-03-18T05:49:47.136Z,4.28
2023-03-18T05:52:14.395Z,4.25
2023-03-18T05:54:42.125Z,3.70
2023-03-18T05:59:48.705Z,4.20
2023-03-18T06:02:15.461Z,4.00
2023-03-18T06:04:42.460Z,3.78
2023-03-18T06:07:11.878Z,4.13
2023-03-18T06:09:38.597Z,3.55
2023-03-18T06:12:05.828Z,3.42
2023-03-18T06:17:10.844Z,4.20
2023-03-18T06:19:38.365Z,4.15
2023-03-18T06:22:05.908Z,4.20
2023-03-18T06:24:33.143Z,3.78
2023-03-18T06:26:59.852Z,4.38
2023-03-18T06:29:26.887Z,3.60
2023-03-18T06:31:53.809Z,4.13
2023-03-18T06:34:20.716Z,4.15
2023-03-18T06:36:47.598Z,4.22
2023-03-18T06:39:18.272Z,4.32
2023-03-18T06:41:45.218Z,3.80
2023-03-18T06:44:13.390Z,3.83
2023-03-18T06:46:44.441Z,3.92
2023-03-18T06:49:13.736Z,4.13
2023-03-18T06:51:40.749Z,3.67
2023-03-18T06:54:07.658Z,4.13
2023-03-18T06:56:37.647Z,3.53
2023-03-18T06:59:05.545Z,4.15
2023-03-18T07:01:38.187Z,3.72
2023-03-18T07:04:07.041Z,3.97
2023-03-18T07:06:33.901Z,4.43
2023-03-18T07:09:02.173Z,4.55
2023-03-18T07:11:28.847Z,4.43
2023-03-18T07:13:55.465Z,4.38
2023-03-18T07:16:22.273Z,4.03
2023-03-18T07:18:49.393Z,3.75
2023-03-18T07:21:16.955Z,3.97
2023-03-18T07:23:43.714Z,3.63
2023-03-18T07:26:12.589Z,3.63
2023-03-18T07:28:39.556Z,4.00
2023-03-18T07:31:08.140Z,3.88
2023-03-18T07:33:37.770Z,3.70
2023-03-18T07:36:04.528Z,3.92
2023-03-18T07:38:31.261Z,4.63
2023-03-18T07:40:58.411Z,4.07
2023-03-18T07:43:25.071Z,3.97
2023-03-18T07:45:51.797Z,4.18
2023-03-18T07:48:19.563Z,3.88
2023-03-18T07:50:46.222Z,5.30
2023-03-18T07:53:16.652Z,3.47
2023-03-18T07:55:44.814Z,3.75
2023-03-18T07:58:11.736Z,3.70
2023-03-18T08:00:38.694Z,3.38
2023-03-18T08:03:06.124Z,3.75
2023-03-18T08:05:34.249Z,3.67
2023-03-18T08:08:02.578Z,3.65
2023-03-18T08:10:29.841Z,4.22
2023-03-18T08:13:00.729Z,3.42
2023-03-18T08:15:29.528Z,3.88
2023-03-18T08:17:56.741Z,3.95
2023-03-18T08:20:23.841Z,3.72
2023-03-18T08:22:53.403Z,3.72
2023-03-18T08:25:22.244Z,3.40
2023-03-18T08:27:49.194Z,3.22
2023-03-18T08:30:16.731Z,4.57
2023-03-18T08:32:43.732Z,3.42
2023-03-18T08:35:11.814Z,3.67
2023-03-18T08:37:38.611Z,3.58
2023-03-18T08:40:06.317Z,3.53
2023-03-18T08:42:34.434Z,3.58
2023-03-18T08:45:02.085Z,3.42
2023-03-18T08:47:29.617Z,3.88
2023-03-18T08:49:56.907Z,3.92
2023-03-18T08:52:24.578Z,3.55
2023-03-18T08:54:51.247Z,3.88
2023-03-18T08:57:18.521Z,3.70
2023-03-18T08:59:48.836Z,3.55
2023-03-18T09:02:18.782Z,3.22
2023-03-18T09:04:45.644Z,3.75
2023-03-18T09:07:17.939Z,3.55
2023-03-18T09:09:46.371Z,3.75
2023-03-18T09:12:14.274Z,3.78
2023-03-18T09:14:43.494Z,3.38
2023-03-18T09:17:10.535Z,2.88
2023-03-18T09:19:37.629Z,3.50
2023-03-18T09:22:05.602Z,3.72
2023-03-18T09:24:35.204Z,3.92
2023-03-18T09:27:02.952Z,3.58
2023-03-18T09:29:29.846Z,3.58
2023-03-18T09:31:56.582Z,3.58
2023-03-18T09:34:23.443Z,3.70
2023-03-18T09:36:54.084Z,4.35
2023-03-18T09:39:21.990Z,3.70
2023-03-18T09:42:02.858Z,3.75
2023-03-18T09:44:33.788Z,3.50
2023-03-18T09:47:38.233Z,3.50
2023-03-18T09:50:40.237Z,3.30
2023-03-18T09:53:35.634Z,2.97
2023-03-18T09:56:03.258Z,3.40
2023-03-18T09:58:49.134Z,3.38
2023-03-18T10:01:16.865Z,3.38
2023-03-18T10:03:49.139Z,3.17
2023-03-18T10:06:24.098Z,3.88
2023-03-18T10:09:21.060Z,3.30
2023-03-18T10:11:52.590Z,3.22
2023-03-18T10:14:37.370Z,3.30
2023-03-18T10:17:22.467Z,3.45
2023-03-18T10:19:53.562Z,3.40
2023-03-18T10:22:38.063Z,3.00
2023-03-18T10:25:21.186Z,2.63
2023-03-18T10:28:01.173Z,3.28
2023-03-18T10:31:09.574Z,3.25
2023-03-18T10:33:46.979Z,3.00
2023-03-18T10:36:23.653Z,4.05
2023-03-18T10:38:51.838Z,3.97
2023-03-18T10:41:34.371Z,3.35
2023-03-18T10:44:25.666Z,3.63
2023-03-18T10:47:25.124Z,3.83
2023-03-18T10:50:06.306Z,2.88
2023-03-18T10:52:45.998Z,3.53
2023-03-18T10:55:22.757Z,3.50
2023-03-18T10:57:51.414Z,3.67
2023-03-18T11:00:35.385Z,3.45
2023-03-18T11:03:07.565Z,3.15
2023-03-18T11:05:37.760Z,3.53
2023-03-18T11:08:07.121Z,3.30
2023-03-18T11:10:43.980Z,3.42
2023-03-18T11:13:17.400Z,3.15
2023-03-18T11:15:52.809Z,3.58
2023-03-18T11:18:25.008Z,3.35
2023-03-18T11:21:02.421Z,3.60
2023-03-18T11:23:56.929Z,3.53
2023-03-18T11:26:28.981Z,3.20
2023-03-18T11:29:03.175Z,2.97
2023-03-18T11:31:29.879Z,3.63
2023-03-18T11:34:01.649Z,2.78
2023-03-18T11:36:28.664Z,2.95
2023-03-18T11:39:05.382Z,3.47
2023-03-18T11:41:32.068Z,2.80
2023-03-18T11:44:07.987Z,2.78
2023-03-18T11:46:39.580Z,3.20
2023-03-18T11:49:10.862Z,3.08
2023-03-18T11:51:46.614Z,3.20
2023-03-18T11:54:45.260Z,3.25
2023-03-18T11:57:34.894Z,3.35
2023-03-18T12:00:40.840Z,3.80
2023-03-18T12:03:45.569Z,2.70
2023-03-18T12:06:22.968Z,2.70
2023-03-18T12:09:02.761Z,2.78
2023-03-18T12:11:41.375Z,2.75
2023-03-18T12:14:16.272Z,3.30
2023-03-18T12:16:57.164Z,2.47
2023-03-18T12:19:29.558Z,3.30
2023-03-18T12:22:19.173Z,3.20
2023-03-18T12:25:18.606Z,3.15
2023-03-18T12:28:08.073Z,3.10
2023-03-18T12:30:38.401Z,2.67
2023-03-18T12:33:37.863Z,3.20
2023-03-18T12:36:08.778Z,3.15
2023-03-18T12:39:05.961Z,3.33
2023-03-18T12:41:44.112Z,2.35
2023-03-18T12:44:28.163Z,3.65
2023-03-18T12:47:09.824Z,3.45
2023-03-18T12:49:43.935Z,3.65
2023-03-18T12:52:27.923Z,3.67
2023-03-18T12:55:40.085Z,3.08
2023-03-18T12:58:29.182Z,2.97
2023-03-18T13:01:18.789Z,3.00
2023-03-18T13:03:49.433Z,2.88
2023-03-18T13:06:28.533Z,2.90
2023-03-18T13:09:22.025Z,3.08
2023-03-18T13:11:52.067Z,3.45
2023-03-18T13:14:39.441Z,3.28
2023-03-18T13:17:16.554Z,3.28
2023-03-18T13:19:43.805Z,2.97
2023-03-18T13:22:37.542Z,3.35
2023-03-18T13:25:08.379Z,2.80
2023-03-18T13:28:02.465Z,2.97
2023-03-18T13:30:32.896Z,3.70
2023-03-18T13:33:24.265Z,3.55
2023-03-18T13:36:08.898Z,3.00
2023-03-18T13:39:14.734Z,3.10
2023-03-18T13:42:11.835Z,3.45
2023-03-18T13:44:48.808Z,3.20
2023-03-18T13:47:18.989Z,3.13
2023-03-18T13:49:51.953Z,4.55
2023-03-18T13:52:24.690Z,4.13
2023-03-18T13:54:52.770Z,3.50
2023-03-18T13:57:34.948Z,3.55
2023-03-18T14:00:24.378Z,3.15
2023-03-18T14:03:23.408Z,3.70
2023-03-18T14:05:53.997Z,3.80
2023-03-18T14:08:53.416Z,3.85
2023-03-18T14:11:27.175Z,3.28
2023-03-18T14:14:02.254Z,4.28
2023-03-18T14:16:31.157Z,3.38
2023-03-18T14:19:22.244Z,3.33
2023-03-18T14:21:53.655Z,3.17
2023-03-18T14:24:23.776Z,3.80
2023-03-18T14:26:59.689Z,3.33
2023-03-18T14:29:31.168Z,3.72
2023-03-18T14:31:59.460Z,3.75
2023-03-18T14:34:29.887Z,3.58
2023-03-18T14:36:56.473Z,3.47
2023-03-18T14:39:42.496Z,2.78
2023-03-18T14:42:27.876Z,3.33
2023-03-18T14:44:58.323Z,3.05
2023-03-18T14:47:46.706Z,3.45
2023-03-18T14:50:17.833Z,3.17
2023-03-18T14:52:53.338Z,3.45
2023-03-18T14:55:25.677Z,3.10
2023-03-18T14:57:52.818Z,3.10
2023-03-18T15:00:21.815Z,3.00
2023-03-18T15:03:01.108Z,3.40
2023-03-18T15:05:35.133Z,3.50
2023-03-18T15:08:05.130Z,3.30
2023-03-18T15:10:32.988Z,2.80
2023-03-18T15:13:08.069Z,2.85
2023-03-18T15:15:38.463Z,3.20
2023-03-18T15:18:36.375Z,3.20
2023-03-18T15:21:11.422Z,3.28
2023-03-18T15:23:42.961Z,2.90
2023-03-18T15:26:22.318Z,3.10
2023-03-18T15:28:55.297Z,2.85
2023-03-18T15:31:30.551Z,2.97
2023-03-18T15:34:21.288Z,2.70
2023-03-18T15:36:59.825Z,2.45
2023-03-18T15:39:36.549Z,2.47
2023-03-18T15:42:15.543Z,3.40
2023-03-18T15:44:44.070Z,2.80
2023-03-18T15:47:22.037Z,3.15
2023-03-18T15:49:58.886Z,2.42
2023-03-18T15:52:30.900Z,2.83
2023-03-18T15:54:58.076Z,2.45
2023-03-18T15:57:40.129Z,1.85
2023-03-18T16:00:10.828Z,1.90
2023-03-18T16:02:38.378Z,1.70
2023-03-18T16:05:15.124Z,1.80
2023-03-18T16:07:42.061Z,1.50
2023-03-18T16:10:12.129Z,1.80
2023-03-18T16:12:41.976Z,1.67
2023-03-18T16:15:14.690Z,1.73
2023-03-18T16:17:45.823Z,1.20
2023-03-18T16:20:24.085Z,1.40
2023-03-18T16:22:53.714Z,1.50
2023-03-18T16:25:20.483Z,1.70
2023-03-18T16:27:48.869Z,1.63
2023-03-18T16:30:20.265Z,1.63
2023-03-18T16:32:47.108Z,1.67
2023-03-18T16:35:27.182Z,1.77
2023-03-18T16:37:53.872Z,1.40
2023-03-18T16:40:26.926Z,1.83
2023-03-18T16:42:53.904Z,1.60
2023-03-18T16:45:23.941Z,1.60
2023-03-18T16:47:53.295Z,1.92
2023-03-18T16:50:22.605Z,1.70
2023-03-18T16:52:50.544Z,1.50
2023-03-18T16:55:21.343Z,1.60
2023-03-18T16:57:51.884Z,1.65
2023-03-18T17:03:01.685Z,2.08
2023-03-18T17:05:29.058Z,1.45
2023-03-18T17:07:56.005Z,1.67
2023-03-18T17:10:28.188Z,1.40
2023-03-18T17:12:59.505Z,1.80
2023-03-18T17:15:29.814Z,1.95
2023-03-18T17:17:58.738Z,1.50
2023-03-18T17:20:27.502Z,1.42
2023-03-18T17:22:59.373Z,1.63
2023-03-18T17:25:29.030Z,2.17
2023-03-18T17:27:59.612Z,2.15
2023-03-18T17:30:36.770Z,2.22
2023-03-18T17:33:05.405Z,1.75
2023-03-18T17:35:32.937Z,2.47
2023-03-18T17:38:02.863Z,2.38
2023-03-18T17:40:31.382Z,3.45
2023-03-18T17:42:58.838Z,2.67
2023-03-18T17:45:34.663Z,2.85
2023-03-18T17:48:13.794Z,2.97
2023-03-18T17:50:43.121Z,2.83
2023-03-18T17:53:27.226Z,2.72
2023-03-18T17:56:01.145Z,2.35
2023-03-18T17:58:31.938Z,2.90
2023-03-18T18:01:27.266Z,2.83
2023-03-18T18:03:55.017Z,3.08
2023-03-18T18:06:25.852Z,2.92
2023-03-18T18:08:53.380Z,3.20
2023-03-18T18:11:41.351Z,3.35
2023-03-18T18:14:30.585Z,2.65
2023-03-18T18:16:57.844Z,2.50
2023-03-18T18:19:24.435Z,2.83
2023-03-18T18:21:52.722Z,3.42
2023-03-18T18:24:28.459Z,3.05
2023-03-18T18:26:56.022Z,3.08
2023-03-18T18:29:28.288Z,2.80
2023-03-18T18:31:55.044Z,3.95
2023-03-18T18:34:23.084Z,2.78
2023-03-18T18:36:51.081Z,3.40
2023-03-18T18:39:18.255Z,3.22
2023-03-18T18:41:46.562Z,4.32
2023-03-18T18:44:14.045Z,4.57
2023-03-18T18:46:40.910Z,3.80
2023-03-18T18:49:22.662Z,4.18
2023-03-18T18:51:55.199Z,4.28
2023-03-18T18:54:22.814Z,3.53
2023-03-18T18:56:49.684Z,3.88
2023-03-18T18:59:23.162Z,3.42
2023-03-18T19:01:51.733Z,4.25
2023-03-18T19:04:19.050Z,4.15
2023-03-18T19:06:46.647Z,4.18
2023-03-18T19:09:18.402Z,3.95
2023-03-18T19:11:46.240Z,3.92
2023-03-18T19:14:46.257Z,3.92
2023-03-18T19:17:18.017Z,4.35
2023-03-18T19:19:45.623Z,4.18
2023-03-18T19:22:20.782Z,4.18
2023-03-18T19:24:50.783Z,4.32
2023-03-18T19:27:24.680Z,3.58
2023-03-18T19:29:53.073Z,4.50
2023-03-18T19:32:24.031Z,3.97
2023-03-18T19:34:52.324Z,4.32
2023-03-18T19:37:23.038Z,3.60
2023-03-18T19:39:49.749Z,6.57
2023-03-18T19:42:20.210Z,4.40
2023-03-18T19:44:47.802Z,4.32
2023-03-18T19:47:20.510Z,4.10
2023-03-18T19:49:47.420Z,5.82
2023-03-18T19:52:17.122Z,3.85
2023-03-18T19:57:24.120Z,4.07
2023-03-18T19:59:51.559Z,4.47
2023-03-18T20:02:30.660Z,5.38
2023-03-18T20:05:00.301Z,4.32
2023-03-18T20:07:29.910Z,4.22
2023-03-18T20:09:56.905Z,4.28
2023-03-18T20:12:32.456Z,4.55
2023-03-18T20:14:59.180Z,5.20
2023-03-18T20:17:37.215Z,5.10
2023-03-18T20:20:04.807Z,5.20
2023-03-18T20:22:34.671Z,5.40
2023-03-18T20:25:02.575Z,6.20
2023-03-18T20:27:30.214Z,6.20
2023-03-18T20:29:57.402Z,6.03
2023-03-18T20:32:25.773Z,5.70
2023-03-18T20:34:52.548Z,5.68
2023-03-18T20:37:24.456Z,6.25
2023-03-18T20:39:53.489Z,5.82
2023-03-18T20:42:20.293Z,6.45
2023-03-18T20:44:47.062Z,6.28
2023-03-18T20:47:13.780Z,5.97
2023-03-18T20:49:41.479Z,6.10
2023-03-18T20:52:28.039Z,6.00
2023-03-18T20:54:56.834Z,5.78
2023-03-18T20:57:24.268Z,6.10
2023-03-18T20:59:57.533Z,5.72
2023-03-18T21:02:36.268Z,5.53
2023-03-18T21:05:04.387Z,5.57
2023-03-18T21:07:31.206Z,6.05
2023-03-18T21:09:57.943Z,7.07
2023-03-18T21:12:24.724Z,6.07
2023-03-18T21:14:51.863Z,5.90
2023-03-18T21:17:23.719Z,5.90
2023-03-18T21:19:51.545Z,5.90
2023-03-18T21:22:22.877Z,5.53
2023-03-18T21:24:49.982Z,5.22
2023-03-18T21:27:23.420Z,6.00
2023-03-18T21:29:51.336Z,5.88
2023-03-18T21:32:27.395Z,6.57
2023-03-18T21:34:54.841Z,6.20
2023-03-18T21:37:23.827Z,6.10
2023-03-18T21:39:52.535Z,6.00
2023-03-18T21:42:26.794Z,5.78
2023-03-18T21:44:53.896Z,7.05
2023-03-18T21:47:23.200Z,5.60
2023-03-18T21:49:50.133Z,6.53
2023-03-18T21:52:31.895Z,5.82
2023-03-18T21:55:02.045Z,5.93
2023-03-18T21:57:29.554Z,5.93
2023-03-18T21:59:56.215Z,5.95
2023-03-18T22:02:27.918Z,5.97
2023-03-18T22:04:57.951Z,5.85
2023-03-18T22:07:29.259Z,6.15
2023-03-18T22:09:56.439Z,6.20
2023-03-18T22:12:27.152Z,6.07
2023-03-18T22:14:54.430Z,6.00
2023-03-18T22:17:29.781Z,6.47
2023-03-18T22:19:57.923Z,6.95
2023-03-18T22:22:34.415Z,6.07
2023-03-18T22:25:01.354Z,7.22
2023-03-18T22:27:31.582Z,7.50
2023-03-18T22:29:59.779Z,6.10
2023-03-18T22:32:43.646Z,6.82
2023-03-18T22:35:18.812Z,6.75
2023-03-18T22:37:48.595Z,6.38
2023-03-18T22:40:29.951Z,6.30
2023-03-18T22:42:58.745Z,6.43
2023-03-18T22:45:36.124Z,6.80
2023-03-18T22:48:04.419Z,7.43
2023-03-18T22:50:32.769Z,6.47
2023-03-18T22:53:02.045Z,6.90
2023-03-18T22:55:33.337Z,6.45
2023-03-18T22:58:00.090Z,6.75
2023-03-18T23:00:39.052Z,6.40
2023-03-18T23:03:20.736Z,6.40
2023-03-18T23:06:07.111Z,6.22
2023-03-18T23:08:33.895Z,6.05
2023-03-18T23:11:01.919Z,5.60
2023-03-18T23:13:34.650Z,6.55
2023-03-18T23:16:04.348Z,6.70
2023-03-18T23:18:33.330Z,6.50
2023-03-18T23:21:00.742Z,6.00
2023-03-18T23:23:30.441Z,6.13
2023-03-18T23:25:57.163Z,6.00
2023-03-18T23:28:27.279Z,6.18
2023-03-18T23:30:53.992Z,5.95
2023-03-18T23:33:20.850Z,5.75
2023-03-18T23:35:50.397Z,6.13
2023-03-18T23:38:17.017Z,6.60
2023-03-18T23:40:52.079Z,6.03
2023-03-18T23:43:20.883Z,5.72
2023-03-18T23:45:49.374Z,6.53
2023-03-18T23:48:17.001Z,6.40
2023-03-18T23:50:43.635Z,6.07
2023-03-18T23:53:10.166Z,6.82
2023-03-18T23:55:36.912Z,7.15
2023-03-18T23:58:04.109Z,7.15
